Terminal Aerodrome Forecast
Issued by NWS

Home | Current Version | Previous Version | Text Only | Print | Product List | Glossary On
Versions: 1 2 3 4 5 6 7 8 9 10 11 12 13 14 15
000
FTUS45 KTFX 280540
TAFLWT
TAF
KLWT 280540Z 2806/2906 25008KT P6SM -RA SCT045 OVC060
      TEMPO 2806/2808 5SM RA BR OVC040
     FM281000 27009KT P6SM SCT040 SCT070
     FM281800 27010KT P6SM SCT040 BKN080=

USA.gov is the U.S. government's official web portal to all federal, state and local government web resources and services.